Terminal Aerodrome Forecast
Issued by NWS

Home | Current Version | Previous Version | Text Only | Print | Product List | Glossary On
Versions: 1 2 3 4 5 6 7 8 9 10 11 12 13 14 15 16 17 18 19
992
FTUS42 KILM 301007 AAA
TAFCRE
TAF AMD
KCRE 301007Z 3010/3106 05007KT P6SM FEW060
     FM301500 12013KT P6SM SCT050 SCT250
     FM310200 14012KT P6SM BKN035
      TEMPO 3103/3106 VRB10G20KT 2SM TSRA BKN004 OVC025CB=

USA.gov is the U.S. government's official web portal to all federal, state and local government web resources and services.